createdAt,value
2019-05-22T00:00:02.319Z,10.97
2019-05-22T00:01:29.990Z,10.96
2019-05-22T00:02:36.110Z,10.96
2019-05-22T00:03:48.820Z,11.01
2019-05-22T00:04:55.849Z,11.03
2019-05-22T00:06:03.777Z,11.06
2019-05-22T00:07:10.686Z,11.06
2019-05-22T00:08:14.407Z,11.07
2019-05-22T00:09:29.713Z,10.98
2019-05-22T00:10:34.958Z,10.96
2019-05-22T00:11:38.295Z,10.96
2019-05-22T00:12:46.742Z,10.97
2019-05-22T00:13:48.811Z,11.00
2019-05-22T00:14:55.190Z,11.00
2019-05-22T00:16:00.160Z,10.96
2019-05-22T00:17:03.824Z,10.91
2019-05-22T00:18:07.625Z,10.92
2019-05-22T00:19:12.719Z,10.95
2019-05-22T00:20:17.242Z,10.95
2019-05-22T00:21:21.941Z,10.90
2019-05-22T00:22:31.542Z,10.90
2019-05-22T00:23:35.490Z,10.92
2019-05-22T00:24:39.949Z,10.87
2019-05-22T00:25:44.574Z,10.87
2019-05-22T00:26:47.641Z,10.85
2019-05-22T00:27:51.182Z,10.85
2019-05-22T00:28:54.178Z,10.78
2019-05-22T00:29:58.409Z,10.74
2019-05-22T00:31:01.748Z,10.77
2019-05-22T00:32:07.542Z,10.82
2019-05-22T00:33:12.380Z,10.72
2019-05-22T00:34:16.564Z,10.74
2019-05-22T00:35:21.589Z,10.75
2019-05-22T00:36:24.925Z,10.75
2019-05-22T00:37:27.879Z,10.79
2019-05-22T00:38:32.534Z,10.79
2019-05-22T00:39:38.366Z,10.68
2019-05-22T00:40:46.291Z,10.69
2019-05-22T00:41:51.082Z,10.69
2019-05-22T00:43:03.243Z,10.72
2019-05-22T00:44:00.295Z,10.69
2019-05-22T00:45:04.719Z,10.67
2019-05-22T00:46:08.261Z,10.65
2019-05-22T00:47:14.141Z,10.69
2019-05-22T00:48:19.129Z,10.66
2019-05-22T00:49:25.700Z,10.77
2019-05-22T00:50:29.502Z,10.78
2019-05-22T00:51:59.987Z,10.75
2019-05-22T00:53:21.523Z,10.75
2019-05-22T00:54:43.597Z,10.73
2019-05-22T00:55:50.868Z,10.73
2019-05-22T00:57:18.769Z,10.74
2019-05-22T00:58:27.141Z,10.74
2019-05-22T00:59:33.981Z,10.74
2019-05-22T01:00:40.250Z,10.74
2019-05-22T01:01:50.961Z,10.66
2019-05-22T01:02:54.984Z,10.69
2019-05-22T01:03:59.065Z,10.68
2019-05-22T01:05:04.687Z,10.66
2019-05-22T01:06:09.204Z,10.71
2019-05-22T01:07:18.154Z,10.59
2019-05-22T01:08:22.762Z,10.59
2019-05-22T01:09:32.573Z,10.61
2019-05-22T01:10:36.282Z,10.68
2019-05-22T01:11:39.936Z,10.64
2019-05-22T01:12:45.152Z,10.61
2019-05-22T01:13:47.920Z,10.63
2019-05-22T01:14:52.788Z,10.57
2019-05-22T01:15:56.303Z,10.63
2019-05-22T01:17:00.843Z,10.67
2019-05-22T01:18:05.220Z,10.63
2019-05-22T01:19:08.896Z,10.61
2019-05-22T01:20:14.917Z,10.67
2019-05-22T01:21:22.115Z,10.67
2019-05-22T01:22:26.110Z,10.66
2019-05-22T01:23:30.469Z,10.63
2019-05-22T01:24:33.902Z,10.62
2019-05-22T01:25:40.885Z,10.64
2019-05-22T01:26:44.065Z,10.64
2019-05-22T01:27:49.464Z,10.68
2019-05-22T01:28:53.883Z,10.67
2019-05-22T01:29:58.598Z,10.62
2019-05-22T01:31:20.138Z,10.61
2019-05-22T01:32:33.512Z,10.64
2019-05-22T01:33:56.727Z,10.60
2019-05-22T01:35:00.782Z,10.59
2019-05-22T01:36:28.870Z,10.58
2019-05-22T01:37:31.875Z,10.64
2019-05-22T01:38:36.849Z,10.60
2019-05-22T01:39:48.492Z,10.60
2019-05-22T01:40:56.105Z,10.59
2019-05-22T01:41:58.987Z,10.59
2019-05-22T01:43:04.426Z,10.56
2019-05-22T01:44:09.578Z,10.56
2019-05-22T01:45:15.920Z,10.64
2019-05-22T01:46:20.281Z,10.54
2019-05-22T01:47:23.724Z,10.54
2019-05-22T01:48:27.568Z,10.62
2019-05-22T01:49:32.252Z,10.64
2019-05-22T01:50:35.532Z,10.60
2019-05-22T01:51:39.657Z,10.61
2019-05-22T01:52:43.165Z,10.62
2019-05-22T01:53:47.927Z,10.58
2019-05-22T01:54:52.359Z,10.56
2019-05-22T01:56:00.500Z,10.63
2019-05-22T01:57:05.104Z,10.64
2019-05-22T01:58:08.733Z,10.63
2019-05-22T01:59:12.121Z,10.63
2019-05-22T02:00:15.532Z,10.63
2019-05-22T02:01:24.502Z,10.68
2019-05-22T02:02:27.668Z,10.67
2019-05-22T02:03:33.212Z,10.69
2019-05-22T02:04:36.248Z,10.65
2019-05-22T02:05:39.836Z,10.69
2019-05-22T02:06:43.768Z,10.65
2019-05-22T02:07:47.132Z,10.70
2019-05-22T02:08:52.277Z,10.70
2019-05-22T02:09:57.875Z,10.70
2019-05-22T02:11:02.248Z,10.71
2019-05-22T02:12:06.715Z,10.71
2019-05-22T02:13:09.950Z,10.70
2019-05-22T02:14:13.421Z,10.69
2019-05-22T02:15:16.519Z,10.65
2019-05-22T02:16:21.147Z,10.62
2019-05-22T02:17:24.264Z,10.66
2019-05-22T02:18:28.779Z,10.66
2019-05-22T02:19:31.639Z,10.71
2019-05-22T02:20:35.063Z,10.71
2019-05-22T02:21:38.173Z,10.67
2019-05-22T02:22:41.910Z,10.72
2019-05-22T02:23:46.229Z,10.72
2019-05-22T02:24:51.945Z,10.70
2019-05-22T02:25:54.883Z,10.68
2019-05-22T02:26:59.687Z,10.68
2019-05-22T02:28:02.846Z,10.65
2019-05-22T02:29:07.264Z,10.59
2019-05-22T02:30:10.961Z,10.60
2019-05-22T02:31:17.757Z,10.67
2019-05-22T02:32:20.986Z,10.69
2019-05-22T02:33:25.752Z,10.68
2019-05-22T02:34:29.252Z,10.66
2019-05-22T02:35:35.378Z,10.68
2019-05-22T02:36:39.995Z,10.69
2019-05-22T02:37:44.266Z,10.69
2019-05-22T02:38:49.059Z,10.72
2019-05-22T02:39:54.490Z,10.70
2019-05-22T02:40:57.725Z,10.68
2019-05-22T02:42:02.538Z,10.74
2019-05-22T02:43:07.126Z,10.74
2019-05-22T02:44:10.941Z,10.72
2019-05-22T02:45:13.913Z,10.68
2019-05-22T02:46:18.352Z,10.68
2019-05-22T02:47:23.057Z,10.65
2019-05-22T02:48:31.837Z,10.62
2019-05-22T02:49:36.503Z,10.62
2019-05-22T02:50:53.043Z,10.65
2019-05-22T02:51:56.440Z,10.60
2019-05-22T02:53:06.304Z,10.55
2019-05-22T02:54:09.698Z,10.55
2019-05-22T02:55:13.206Z,10.52
2019-05-22T02:56:16.412Z,10.54
2019-05-22T02:57:20.297Z,10.54
2019-05-22T02:58:24.659Z,10.59
2019-05-22T02:59:28.350Z,10.56
2019-05-22T03:00:31.476Z,10.52
2019-05-22T03:01:34.871Z,10.53
2019-05-22T03:02:38.222Z,10.52
2019-05-22T03:03:42.013Z,10.56
2019-05-22T03:04:44.809Z,10.57
2019-05-22T03:05:49.270Z,10.55
2019-05-22T03:06:53.538Z,10.55
2019-05-22T03:07:58.379Z,10.56
2019-05-22T03:09:01.226Z,10.57
2019-05-22T03:10:05.704Z,10.57
2019-05-22T03:11:09.918Z,10.57
2019-05-22T03:12:16.971Z,10.59
2019-05-22T03:13:20.982Z,10.52
2019-05-22T03:14:25.849Z,10.60
2019-05-22T03:15:28.733Z,10.64
2019-05-22T03:16:32.091Z,10.56
2019-05-22T03:17:35.021Z,10.55
2019-05-22T03:18:39.245Z,10.60
2019-05-22T03:19:43.456Z,10.58
2019-05-22T03:20:47.519Z,10.58
2019-05-22T03:21:50.480Z,10.61
2019-05-22T03:22:53.982Z,10.61
2019-05-22T03:23:56.941Z,10.65
2019-05-22T03:25:01.206Z,10.58
2019-05-22T03:26:04.941Z,10.59
2019-05-22T03:27:10.699Z,10.59
2019-05-22T03:28:14.291Z,10.61
2019-05-22T03:29:17.735Z,10.66
2019-05-22T03:30:21.788Z,10.63
2019-05-22T03:31:25.709Z,10.57
2019-05-22T03:32:28.686Z,10.56
2019-05-22T03:33:32.191Z,10.62
2019-05-22T03:34:35.327Z,10.56
2019-05-22T03:35:39.610Z,10.53
2019-05-22T03:36:43.329Z,10.53
2019-05-22T03:37:47.154Z,10.63
2019-05-22T03:38:50.973Z,10.68
2019-05-22T03:39:54.678Z,10.61
2019-05-22T03:40:57.517Z,10.64
2019-05-22T03:42:01.224Z,10.65
2019-05-22T03:43:04.421Z,10.68
2019-05-22T03:44:08.089Z,10.70
2019-05-22T03:45:11.367Z,10.63
2019-05-22T03:46:16.475Z,10.63
2019-05-22T03:47:19.369Z,10.70
2019-05-22T03:48:23.503Z,10.70
2019-05-22T03:49:30.609Z,10.65
2019-05-22T03:50:32.888Z,10.66
2019-05-22T03:51:36.704Z,10.70
2019-05-22T03:52:40.455Z,10.71
2019-05-22T03:53:44.160Z,10.71
2019-05-22T03:54:47.927Z,10.68
2019-05-22T03:55:51.257Z,10.74
2019-05-22T03:56:56.021Z,10.75
2019-05-22T03:57:59.429Z,10.75
2019-05-22T03:59:03.332Z,10.75
2019-05-22T04:00:06.250Z,10.72
2019-05-22T04:01:10.050Z,10.72
2019-05-22T04:02:13.651Z,10.74
2019-05-22T04:03:20.443Z,10.71
2019-05-22T04:04:23.282Z,10.71
2019-05-22T04:05:27.302Z,10.69
2019-05-22T04:06:32.066Z,10.70
2019-05-22T04:07:36.475Z,10.70
2019-05-22T04:08:40.013Z,10.62
2019-05-22T04:09:45.751Z,10.62
2019-05-22T04:10:48.588Z,10.67
2019-05-22T04:11:55.991Z,10.64
2019-05-22T04:12:58.993Z,10.64
2019-05-22T04:14:02.981Z,10.69
2019-05-22T04:15:07.819Z,10.69
2019-05-22T04:16:12.508Z,10.72
2019-05-22T04:17:16.973Z,10.69
2019-05-22T04:18:22.925Z,10.72
2019-05-22T04:19:25.452Z,10.63
2019-05-22T04:20:28.839Z,10.70
2019-05-22T04:21:31.660Z,10.68
2019-05-22T04:22:35.803Z,10.63
2019-05-22T04:23:39.040Z,10.65
2019-05-22T04:24:43.987Z,10.66
2019-05-22T04:25:53.159Z,10.66
2019-05-22T04:26:54.456Z,10.69
2019-05-22T04:27:57.372Z,10.71
2019-05-22T04:29:00.998Z,10.72
2019-05-22T04:30:04.512Z,10.70
2019-05-22T04:31:08.257Z,10.72
2019-05-22T04:32:38.647Z,10.69
2019-05-22T04:33:41.529Z,10.66
2019-05-22T04:34:45.259Z,10.62
2019-05-22T04:35:49.653Z,10.59
2019-05-22T04:36:54.911Z,10.62
2019-05-22T04:37:57.886Z,10.62
2019-05-22T04:39:01.676Z,10.64
2019-05-22T04:40:06.068Z,10.64
2019-05-22T04:41:13.149Z,10.62
2019-05-22T04:42:16.219Z,10.58
2019-05-22T04:43:23.183Z,10.56
2019-05-22T04:44:26.790Z,10.50
2019-05-22T04:45:30.584Z,10.52
2019-05-22T04:46:33.941Z,10.56
2019-05-22T04:47:37.490Z,10.53
2019-05-22T04:48:45.248Z,10.53
2019-05-22T04:49:45.300Z,10.43
2019-05-22T04:50:48.191Z,10.48
2019-05-22T04:51:52.093Z,10.47
2019-05-22T04:52:54.902Z,10.37
2019-05-22T04:54:00.765Z,10.37
2019-05-22T04:55:05.183Z,10.41
2019-05-22T04:56:08.893Z,10.41
2019-05-22T04:57:11.916Z,10.39
2019-05-22T04:58:18.954Z,10.38
2019-05-22T04:59:21.929Z,10.43
2019-05-22T05:00:30.224Z,10.43
2019-05-22T05:01:31.357Z,10.39
2019-05-22T05:02:34.849Z,10.43
2019-05-22T05:03:37.754Z,10.50
2019-05-22T05:04:41.170Z,10.47
2019-05-22T05:05:46.613Z,10.51
2019-05-22T05:06:51.148Z,10.51
2019-05-22T05:07:54.178Z,10.48
2019-05-22T05:08:57.697Z,10.48
2019-05-22T05:10:00.649Z,10.51
2019-05-22T05:11:04.574Z,10.54
2019-05-22T05:12:07.483Z,10.54
2019-05-22T05:13:11.424Z,10.54
2019-05-22T05:14:14.451Z,10.58
2019-05-22T05:15:17.889Z,10.59
2019-05-22T05:16:20.679Z,10.59
2019-05-22T05:17:24.813Z,10.53
2019-05-22T05:18:27.868Z,10.46
2019-05-22T05:19:33.460Z,10.47
2019-05-22T05:20:36.373Z,10.47
2019-05-22T05:21:39.807Z,10.48
2019-05-22T05:22:43.342Z,10.54
2019-05-22T05:23:46.723Z,10.60
2019-05-22T05:24:49.914Z,10.60
2019-05-22T05:25:53.811Z,10.62
2019-05-22T05:26:57.010Z,10.62
2019-05-22T05:28:01.623Z,10.61
2019-05-22T05:29:04.582Z,10.61
2019-05-22T05:43:52.886Z,10.45
2019-05-22T05:44:56.295Z,10.48
2019-05-22T05:45:59.348Z,10.39
2019-05-22T05:47:04.308Z,10.39
2019-05-22T05:48:07.251Z,10.56
2019-05-22T05:49:12.002Z,10.52
2019-05-22T05:50:15.552Z,10.53
2019-05-22T05:51:19.306Z,10.53
2019-05-22T05:52:22.278Z,10.45
2019-05-22T05:53:26.629Z,10.46
2019-05-22T05:54:30.490Z,10.46
2019-05-22T05:55:34.729Z,10.44
2019-05-22T05:56:39.165Z,10.45
2019-05-22T05:57:43.275Z,10.52
2019-05-22T05:58:49.363Z,10.52
2019-05-22T05:59:53.215Z,10.46
2019-05-22T06:00:57.917Z,10.46
2019-05-22T06:02:02.273Z,10.42
2019-05-22T06:03:05.436Z,10.41
2019-05-22T06:04:12.856Z,10.41
2019-05-22T06:05:15.720Z,10.49
2019-05-22T06:06:19.275Z,10.46
2019-05-22T06:07:23.482Z,10.53
2019-05-22T06:08:35.860Z,10.53
2019-05-22T06:09:40.484Z,10.50
2019-05-22T06:10:47.169Z,10.37
2019-05-22T06:11:52.586Z,10.43
2019-05-22T06:12:56.081Z,10.45
2019-05-22T06:14:02.070Z,10.34
2019-05-22T06:15:06.249Z,10.39
2019-05-22T06:16:09.372Z,10.39
2019-05-22T06:17:13.162Z,10.44
2019-05-22T06:18:16.595Z,10.40
2019-05-22T06:19:20.794Z,10.44
2019-05-22T06:20:25.500Z,10.32
2019-05-22T06:21:29.406Z,10.41
2019-05-22T06:22:32.215Z,10.44
2019-05-22T06:23:36.563Z,10.44
2019-05-22T06:24:43.042Z,10.41
2019-05-22T06:25:48.451Z,10.37
2019-05-22T06:26:51.546Z,10.44
2019-05-22T06:27:56.277Z,10.44
2019-05-22T06:28:59.926Z,10.51
2019-05-22T06:30:08.256Z,10.52
2019-05-22T06:31:11.614Z,10.54
2019-05-22T06:32:16.087Z,10.59
2019-05-22T06:33:18.979Z,10.68
2019-05-22T06:34:23.220Z,10.61
2019-05-22T06:35:27.114Z,10.59
2019-05-22T06:36:30.472Z,10.56
2019-05-22T06:37:33.778Z,10.53
2019-05-22T06:38:37.803Z,10.52
2019-05-22T06:39:51.864Z,10.54
2019-05-22T06:41:03.991Z,10.54
2019-05-22T06:42:06.237Z,10.64
2019-05-22T06:43:11.795Z,10.64
2019-05-22T06:44:15.213Z,10.73
2019-05-22T06:45:19.169Z,10.73
2019-05-22T06:46:24.212Z,10.68
2019-05-22T06:47:29.607Z,10.68
2019-05-22T06:48:32.608Z,10.69
2019-05-22T06:49:36.155Z,10.73
2019-05-22T06:50:39.262Z,10.78
2019-05-22T06:51:42.619Z,10.79
2019-05-22T06:53:07.359Z,10.73
2019-05-22T06:53:57.180Z,10.84
2019-05-22T06:54:59.685Z,10.84
2019-05-22T06:56:03.088Z,10.71
2019-05-22T06:58:45.195Z,10.73
2019-05-22T07:00:10.726Z,10.73
2019-05-22T07:01:06.330Z,10.89
2019-05-22T07:02:10.717Z,10.71
2019-05-22T07:03:13.747Z,10.75
2019-05-22T07:04:19.878Z,10.67
2019-05-22T07:05:26.875Z,10.67
2019-05-22T07:06:30.737Z,10.73
2019-05-22T07:07:33.530Z,10.75
2019-05-22T07:08:41.604Z,10.81
2019-05-22T07:09:47.855Z,10.85
2019-05-22T07:11:04.571Z,10.83
2019-05-22T07:12:01.342Z,10.72
2019-05-22T07:13:06.452Z,10.67
2019-05-22T07:14:09.795Z,10.50
2019-05-22T07:15:14.827Z,10.44
2019-05-22T07:16:19.976Z,10.39
2019-05-22T07:17:24.434Z,10.52
2019-05-22T07:18:31.705Z,10.56
2019-05-22T07:19:35.121Z,10.56
2019-05-22T07:20:39.450Z,10.51
2019-05-22T07:21:43.226Z,10.51
2019-05-22T07:22:46.631Z,10.58
2019-05-22T07:23:52.450Z,10.57
2019-05-22T07:24:55.845Z,10.53
2019-05-22T07:25:59.382Z,10.41
2019-05-22T07:27:02.202Z,10.41
2019-05-22T07:28:12.861Z,10.44
2019-05-22T07:29:15.703Z,10.68
2019-05-22T07:30:24.079Z,10.77
2019-05-22T07:31:27.221Z,10.77
2019-05-22T07:32:32.898Z,10.77
2019-05-22T07:33:35.841Z,10.61
2019-05-22T07:34:39.420Z,10.61
2019-05-22T07:36:04.442Z,10.70
2019-05-22T07:36:48.424Z,10.70
2019-05-22T07:37:54.239Z,10.59
2019-05-22T07:38:57.960Z,10.59
2019-05-22T07:40:02.168Z,10.70
2019-05-22T07:41:09.738Z,10.74
2019-05-22T07:42:12.696Z,10.82
2019-05-22T07:43:17.368Z,10.76
2019-05-22T07:44:20.257Z,10.74
2019-05-22T07:45:23.690Z,10.74
2019-05-22T07:46:30.242Z,10.62
2019-05-22T07:47:31.753Z,10.64
2019-05-22T07:48:34.762Z,10.70
2019-05-22T07:49:40.388Z,10.78
2019-05-22T07:50:49.598Z,10.76
2019-05-22T07:52:00.678Z,10.72
2019-05-22T07:52:57.726Z,10.87
2019-05-22T07:54:02.201Z,10.87
2019-05-22T07:55:09.836Z,10.55
2019-05-22T07:56:13.671Z,10.53
2019-05-22T07:57:21.906Z,10.53
2019-05-22T07:58:29.425Z,10.47
2019-05-22T07:59:32.708Z,10.45
2019-05-22T08:00:36.244Z,10.45
2019-05-22T08:01:39.292Z,10.50
2019-05-22T08:02:43.820Z,10.58
2019-05-22T08:03:46.685Z,10.60
2019-05-22T08:04:50.114Z,10.60
2019-05-22T08:05:53.046Z,10.58
2019-05-22T08:06:58.411Z,10.57
2019-05-22T08:08:01.591Z,10.56
2019-05-22T08:09:11.399Z,10.57
2019-05-22T08:10:16.088Z,10.57
2019-05-22T08:12:44.597Z,10.60
2019-05-22T08:13:54.242Z,10.60
2019-05-22T08:15:21.318Z,10.56
2019-05-22T08:16:20.226Z,10.56
2019-05-22T08:17:23.472Z,10.55
2019-05-22T08:18:28.007Z,10.63
2019-05-22T08:19:30.923Z,10.71
2019-05-22T08:20:37.439Z,10.66
2019-05-22T08:21:40.903Z,10.72
2019-05-22T08:22:44.770Z,10.75
2019-05-22T08:23:47.732Z,10.75
2019-05-22T08:24:51.641Z,10.86
2019-05-22T08:25:54.987Z,10.85
2019-05-22T08:26:58.483Z,10.85
2019-05-22T08:28:02.005Z,10.84
2019-05-22T08:29:05.826Z,10.84
2019-05-22T08:30:09.762Z,10.62
2019-05-22T08:31:14.058Z,10.47
2019-05-22T08:32:17.206Z,10.39
2019-05-22T08:33:23.327Z,10.38
2019-05-22T08:34:26.490Z,10.49
2019-05-22T08:35:30.055Z,10.49
2019-05-22T08:36:38.603Z,10.55
2019-05-22T08:37:41.355Z,10.62
2019-05-22T08:38:44.229Z,10.52
2019-05-22T08:39:48.170Z,10.55
2019-05-22T08:40:53.342Z,10.70
2019-05-22T08:41:56.806Z,10.85
2019-05-22T08:42:59.726Z,10.83
2019-05-22T08:44:16.333Z,10.86
2019-05-22T08:45:07.882Z,10.80
2019-05-22T08:46:11.837Z,10.80
2019-05-22T08:47:15.224Z,10.62
2019-05-22T08:48:21.827Z,10.66
2019-05-22T08:49:25.782Z,10.77
2019-05-22T08:50:30.881Z,10.77
2019-05-22T08:51:36.121Z,10.78
2019-05-22T08:52:39.825Z,10.78
2019-05-22T08:53:50.125Z,10.70
2019-05-22T08:54:56.216Z,10.63
2019-05-22T08:55:59.123Z,10.64
2019-05-22T08:57:06.575Z,10.73
2019-05-22T08:58:10.496Z,10.73
2019-05-22T08:59:19.451Z,10.57
2019-05-22T09:00:21.484Z,10.54
2019-05-22T09:01:25.767Z,10.67
2019-05-22T09:02:34.169Z,10.67
2019-05-22T09:03:40.151Z,10.67
2019-05-22T09:04:43.075Z,10.77
2019-05-22T09:05:48.823Z,10.86
2019-05-22T09:06:51.505Z,10.92
2019-05-22T09:08:08.812Z,11.03
2019-05-22T09:09:11.717Z,11.03
2019-05-22T09:10:15.538Z,10.91
2019-05-22T09:11:18.488Z,10.96
2019-05-22T09:12:22.966Z,10.74
2019-05-22T09:13:25.855Z,10.76
2019-05-22T09:14:29.420Z,10.87
2019-05-22T09:15:34.622Z,10.92
2019-05-22T09:16:38.035Z,10.89
2019-05-22T09:17:41.419Z,10.86
2019-05-22T09:18:45.654Z,10.86
2019-05-22T09:19:49.283Z,10.79
2019-05-22T09:20:52.877Z,10.94
2019-05-22T09:21:55.715Z,10.80
2019-05-22T09:22:59.234Z,10.74
2019-05-22T09:24:02.521Z,10.87
2019-05-22T09:25:06.383Z,10.87
2019-05-22T09:26:09.443Z,10.91
2019-05-22T09:27:13.389Z,11.23
2019-05-22T09:28:17.566Z,11.23
2019-05-22T09:29:22.228Z,11.14
2019-05-22T09:30:25.232Z,11.01
2019-05-22T09:31:30.122Z,11.09
2019-05-22T09:32:32.994Z,11.03
2019-05-22T09:33:36.721Z,11.03
2019-05-22T09:34:41.015Z,11.19
2019-05-22T09:35:44.465Z,11.27
2019-05-22T09:36:47.349Z,11.27
2019-05-22T09:37:50.822Z,11.05
2019-05-22T09:38:56.485Z,11.29
2019-05-22T09:40:00.014Z,11.14
2019-05-22T09:41:03.282Z,11.00
2019-05-22T09:42:07.051Z,10.93
2019-05-22T09:43:14.169Z,10.93
2019-05-22T09:44:17.684Z,10.97
2019-05-22T09:45:22.236Z,11.30
2019-05-22T09:46:28.377Z,11.10
2019-05-22T09:47:33.772Z,11.17
2019-05-22T09:48:40.951Z,11.17
2019-05-22T09:49:45.636Z,11.35
2019-05-22T09:50:49.960Z,11.54
2019-05-22T09:51:53.798Z,11.69
2019-05-22T09:53:00.437Z,11.69
2019-05-22T09:54:05.288Z,11.37
2019-05-22T09:55:09.062Z,11.37
2019-05-22T09:56:12.264Z,11.68
2019-05-22T09:57:15.857Z,11.89
2019-05-22T09:58:18.942Z,12.10
2019-05-22T09:59:22.664Z,12.10
2019-05-22T10:00:29.898Z,12.04
2019-05-22T10:01:34.400Z,12.17
2019-05-22T10:02:45.153Z,12.20
2019-05-22T10:03:48.376Z,12.06
2019-05-22T10:04:53.918Z,11.89
2019-05-22T10:05:57.422Z,12.12
2019-05-22T10:07:00.396Z,12.26
2019-05-22T10:08:04.871Z,12.67
2019-05-22T10:09:07.737Z,12.84
2019-05-22T10:10:11.551Z,12.84
2019-05-22T10:11:14.396Z,12.90
2019-05-22T10:12:22.894Z,13.05
2019-05-22T10:13:29.015Z,13.30
2019-05-22T10:14:31.845Z,13.53
2019-05-22T10:15:34.982Z,13.67
2019-05-22T10:16:38.429Z,13.83
2019-05-22T10:17:41.948Z,13.65
2019-05-22T10:18:45.407Z,13.85
2019-05-22T10:19:48.290Z,13.90
2019-05-22T10:20:52.110Z,13.92
2019-05-22T10:21:56.176Z,13.96
2019-05-22T10:23:14.085Z,13.75
2019-05-22T10:24:04.287Z,13.58
2019-05-22T10:25:15.927Z,13.72
2019-05-22T10:26:12.819Z,13.72
2019-05-22T10:27:20.093Z,13.75
2019-05-22T10:28:24.661Z,13.37
2019-05-22T10:29:32.003Z,12.93
2019-05-22T10:42:53.719Z,12.32
2019-05-22T10:43:57.582Z,12.32
2019-05-22T10:45:00.504Z,12.27
2019-05-22T10:46:11.097Z,12.72
2019-05-22T10:47:14.407Z,12.09
2019-05-22T10:48:19.601Z,11.82
2019-05-22T10:49:22.517Z,11.86
2019-05-22T10:50:28.741Z,11.72
2019-05-22T10:51:35.918Z,11.77
2019-05-22T10:52:39.820Z,11.83
2019-05-22T10:53:42.805Z,11.97
2019-05-22T10:54:46.763Z,12.30
2019-05-22T10:55:51.279Z,12.30
2019-05-22T10:56:57.128Z,12.49
2019-05-22T10:58:00.060Z,12.57
2019-05-22T10:59:04.005Z,12.49
2019-05-22T11:00:10.444Z,12.16
2019-05-22T11:01:14.354Z,11.96
2019-05-22T11:02:17.350Z,12.21
2019-05-22T11:03:21.376Z,12.19
2019-05-22T11:04:24.971Z,12.44
2019-05-22T11:05:28.552Z,12.88
2019-05-22T11:06:33.009Z,13.18
2019-05-22T11:07:39.419Z,13.18
2019-05-22T11:08:42.737Z,13.18
2019-05-22T11:09:46.211Z,13.24
2019-05-22T11:10:50.041Z,13.36
2019-05-22T11:11:58.117Z,13.26
2019-05-22T11:13:03.075Z,13.24
2019-05-22T11:14:09.475Z,13.24
2019-05-22T11:15:13.029Z,13.20
2019-05-22T11:16:16.280Z,12.97
2019-05-22T11:17:19.457Z,12.84
2019-05-22T11:18:22.794Z,12.74
2019-05-22T11:19:26.179Z,12.85
2019-05-22T11:20:32.551Z,13.08
2019-05-22T11:21:38.603Z,13.16
2019-05-22T11:22:45.119Z,13.33
2019-05-22T11:23:52.573Z,12.81
2019-05-22T11:24:53.242Z,12.37
2019-05-22T11:25:56.496Z,12.29
2019-05-22T11:27:02.710Z,12.29
2019-05-22T11:28:06.053Z,12.82
2019-05-22T11:29:11.988Z,12.82
2019-05-22T11:30:14.835Z,12.82
2019-05-22T11:31:19.302Z,12.93
2019-05-22T11:32:22.554Z,13.73
2019-05-22T11:33:29.044Z,14.24
2019-05-22T11:34:34.926Z,14.60
2019-05-22T11:35:38.384Z,14.13
2019-05-22T11:36:41.223Z,14.44
2019-05-22T11:37:46.336Z,14.74
2019-05-22T11:38:49.285Z,14.88
2019-05-22T11:40:06.066Z,14.81
2019-05-22T11:41:00.348Z,14.81
2019-05-22T11:42:04.150Z,14.78
2019-05-22T11:43:07.996Z,14.16
2019-05-22T11:44:12.003Z,13.99
2019-05-22T11:45:15.152Z,13.94
2019-05-22T11:46:18.724Z,13.64
2019-05-22T11:47:21.656Z,13.64
2019-05-22T11:48:29.209Z,13.04
2019-05-22T11:49:32.438Z,12.74
2019-05-22T11:50:38.842Z,12.74
2019-05-22T11:51:41.760Z,12.94
2019-05-22T11:52:45.267Z,12.96
2019-05-22T11:53:48.584Z,13.15
2019-05-22T11:54:53.550Z,13.15
2019-05-22T11:55:58.000Z,13.46
2019-05-22T11:57:01.879Z,13.46
2019-05-22T11:58:17.187Z,13.04
2019-05-22T11:59:20.785Z,13.04
2019-05-22T12:00:23.920Z,13.16
2019-05-22T12:01:30.472Z,13.16
2019-05-22T12:02:36.305Z,14.54
2019-05-22T12:03:41.428Z,14.95
2019-05-22T12:04:48.117Z,15.45
2019-05-22T12:05:49.511Z,15.93
2019-05-22T12:06:53.856Z,15.93
2019-05-22T12:07:57.771Z,15.93
2019-05-22T12:09:01.625Z,16.09
2019-05-22T12:10:05.399Z,16.33
2019-05-22T12:11:08.657Z,16.08
2019-05-22T12:12:14.952Z,16.01
2019-05-22T12:13:18.336Z,16.18
2019-05-22T12:14:22.161Z,16.13
2019-05-22T12:15:25.387Z,16.13
2019-05-22T12:16:35.351Z,15.56
2019-05-22T12:18:11.310Z,15.76
2019-05-22T12:18:48.878Z,15.76
2019-05-22T12:19:51.915Z,15.02
2019-05-22T12:20:55.398Z,14.62
2019-05-22T12:21:58.636Z,15.42
2019-05-22T12:23:02.313Z,15.01
2019-05-22T12:24:06.224Z,15.27
2019-05-22T12:25:09.750Z,15.73
2019-05-22T12:26:12.931Z,16.15
2019-05-22T12:27:16.452Z,16.15
2019-05-22T12:28:19.241Z,16.49
2019-05-22T12:29:23.001Z,16.37
2019-05-22T12:30:25.914Z,16.37
2019-05-22T12:31:36.614Z,15.91
2019-05-22T12:32:40.910Z,15.86
2019-05-22T12:33:44.355Z,15.79
2019-05-22T12:34:49.514Z,16.39
2019-05-22T12:35:53.820Z,16.39
2019-05-22T12:36:56.742Z,16.39
2019-05-22T12:38:01.462Z,16.17
2019-05-22T12:39:04.732Z,16.17
2019-05-22T12:40:10.987Z,17.26
2019-05-22T12:41:15.197Z,17.11
2019-05-22T12:42:19.003Z,16.31
2019-05-22T12:43:22.427Z,16.53
2019-05-22T12:44:30.061Z,16.49
2019-05-22T12:45:33.255Z,16.46
2019-05-22T12:46:39.102Z,16.88
2019-05-22T12:47:43.469Z,17.01
2019-05-22T12:48:48.014Z,17.40
2019-05-22T12:49:50.918Z,17.82
2019-05-22T12:51:06.771Z,17.96
2019-05-22T12:52:33.317Z,17.44
2019-05-22T12:53:26.935Z,17.54
2019-05-22T12:54:36.806Z,17.50
2019-05-22T12:55:33.105Z,17.50
2019-05-22T12:56:41.973Z,16.82
2019-05-22T12:57:48.209Z,16.26
2019-05-22T12:58:52.716Z,16.26
2019-05-22T13:00:02.234Z,16.68
2019-05-22T13:01:05.355Z,16.91
2019-05-22T13:02:19.851Z,16.91
2019-05-22T13:03:23.912Z,16.58
2019-05-22T13:04:30.496Z,15.80
2019-05-22T13:05:44.287Z,15.24
2019-05-22T13:06:48.305Z,15.95
2019-05-22T13:08:00.838Z,15.95
2019-05-22T13:09:07.058Z,16.21
2019-05-22T13:10:10.394Z,17.17
2019-05-22T13:11:14.403Z,17.11
2019-05-22T13:12:20.812Z,17.07
2019-05-22T13:13:24.623Z,17.19
2019-05-22T13:14:27.446Z,17.19
2019-05-22T13:15:33.251Z,17.67
2019-05-22T13:16:36.223Z,17.43
2019-05-22T13:17:43.918Z,17.59
2019-05-22T13:18:47.580Z,17.59
2019-05-22T13:19:51.276Z,17.49
2019-05-22T13:20:56.260Z,17.65
2019-05-22T13:22:01.281Z,17.61
2019-05-22T13:23:08.273Z,17.83
2019-05-22T13:24:13.455Z,17.83
2019-05-22T13:25:17.307Z,17.65
2019-05-22T13:26:21.159Z,17.62
2019-05-22T13:27:26.437Z,17.62
2019-05-22T13:28:30.343Z,17.46
2019-05-22T13:29:33.460Z,17.09
2019-05-22T13:30:40.210Z,17.01
2019-05-22T13:31:46.645Z,17.01
2019-05-22T13:32:50.296Z,17.27
2019-05-22T13:33:53.178Z,17.31
2019-05-22T13:34:57.759Z,17.67
2019-05-22T13:36:01.732Z,18.00
2019-05-22T13:37:05.367Z,17.74
2019-05-22T13:38:08.573Z,17.74
2019-05-22T13:39:13.504Z,17.93
2019-05-22T13:40:27.117Z,17.84
2019-05-22T13:41:21.965Z,17.49
2019-05-22T13:42:26.569Z,17.39
2019-05-22T13:43:38.202Z,17.14
2019-05-22T13:44:38.457Z,17.79
2019-05-22T13:45:44.089Z,18.36
2019-05-22T13:46:49.137Z,18.74
2019-05-22T13:47:55.341Z,19.00
2019-05-22T13:48:58.182Z,19.00
2019-05-22T13:50:02.149Z,18.71
2019-05-22T13:51:05.078Z,18.73
2019-05-22T13:52:16.187Z,18.50
2019-05-22T13:53:19.958Z,18.50
2019-05-22T13:54:23.370Z,19.12
2019-05-22T13:55:26.420Z,18.91
2019-05-22T13:56:30.444Z,18.91
2019-05-22T13:57:33.395Z,19.59
2019-05-22T13:58:37.061Z,19.95
2019-05-22T13:59:40.176Z,19.96
2019-05-22T14:00:43.582Z,19.58
2019-05-22T14:01:50.969Z,19.58
2019-05-22T14:02:54.987Z,19.10
2019-05-22T14:03:57.851Z,18.93
2019-05-22T14:05:01.376Z,19.08
2019-05-22T14:06:09.037Z,19.13
2019-05-22T14:07:14.825Z,19.41
2019-05-22T14:08:26.206Z,19.44
2019-05-22T14:09:30.098Z,18.74
2019-05-22T14:10:33.447Z,18.22
2019-05-22T14:11:37.250Z,18.22
2019-05-22T14:12:42.575Z,18.91
2019-05-22T14:13:46.721Z,19.03
2019-05-22T14:14:53.013Z,19.51
2019-05-22T14:15:57.472Z,20.13
2019-05-22T14:17:06.809Z,20.13
2019-05-22T14:18:10.230Z,19.83
2019-05-22T14:19:17.305Z,19.41
2019-05-22T14:20:20.786Z,19.19
2019-05-22T14:21:25.820Z,19.19
2019-05-22T14:22:30.055Z,19.53
2019-05-22T14:23:38.770Z,19.90
2019-05-22T14:24:42.181Z,20.27